createdAt,value
2022-09-03T00:01:07.756Z,96369.09
2022-09-03T00:03:41.521Z,96356.16
2022-09-03T00:06:17.524Z,96353.53
2022-09-03T00:08:49.447Z,96354.53
2022-09-03T00:11:20.843Z,96357.97
2022-09-03T00:13:56.531Z,96353.03
2022-09-03T00:16:27.756Z,96355.19
2022-09-03T00:19:00.703Z,96354.66
2022-09-03T00:21:39.042Z,96356.16
2022-09-03T00:24:14.033Z,96361.88
2022-09-03T00:26:46.268Z,96355.25
2022-09-03T00:29:17.653Z,96351.22
2022-09-03T00:31:49.061Z,96358.56
2022-09-03T00:34:23.105Z,96360.06
2022-09-03T00:36:50.808Z,96360.53
2022-09-03T00:39:21.325Z,96353.66
2022-09-03T00:42:07.833Z,96362.63
2022-09-03T00:44:48.274Z,96362.47
2022-09-03T00:47:25.594Z,96355.75
2022-09-03T00:50:04.154Z,96356.75
2022-09-03T00:52:46.029Z,96359.66
2022-09-03T00:55:23.426Z,96367.78
2022-09-03T00:58:04.130Z,96364.91
2022-09-03T01:00:31.745Z,96368.56
2022-09-03T01:03:08.656Z,96360.09
2022-09-03T01:05:44.296Z,96358.50
2022-09-03T01:08:32.213Z,96367.19
2022-09-03T01:11:10.541Z,96359.50
2022-09-03T01:13:44.718Z,96367.31
2022-09-03T01:16:22.315Z,96368.38
2022-09-03T01:18:55.871Z,96360.22
2022-09-03T01:21:55.312Z,96358.16
2022-09-03T01:24:36.388Z,96355.75
2022-09-03T01:27:20.608Z,96359.75
2022-09-03T01:29:58.397Z,96356.88
2022-09-03T01:32:34.495Z,96350.81
2022-09-03T01:35:09.851Z,96359.75
2022-09-03T01:37:47.787Z,96357.34
2022-09-03T01:40:21.015Z,96354.50
2022-09-03T01:43:00.189Z,96355.38
2022-09-03T01:45:51.233Z,96347.47
2022-09-03T01:48:33.718Z,96351.03
2022-09-03T01:51:11.106Z,96352.19
2022-09-03T01:54:21.719Z,96355.97
2022-09-03T01:57:12.867Z,96344.75
2022-09-03T02:00:02.656Z,96350.47
2022-09-03T02:02:32.699Z,96350.91
2022-09-03T02:05:02.758Z,96349.56
2022-09-03T02:07:34.820Z,96340.75
2022-09-03T02:10:04.190Z,96346.81
2022-09-03T02:12:34.927Z,96344.84
2022-09-03T02:15:07.101Z,96347.13
2022-09-03T02:17:37.302Z,96341.06
2022-09-03T02:20:10.228Z,96345.56
2022-09-03T02:22:37.870Z,96346.34
2022-09-03T02:25:06.180Z,96339.00
2022-09-03T02:27:33.818Z,96341.50
2022-09-03T02:30:01.472Z,96341.97
2022-09-03T02:32:29.251Z,96345.63
2022-09-03T02:34:58.841Z,96352.03
2022-09-03T02:37:26.919Z,96348.75
2022-09-03T02:39:54.574Z,96344.84
2022-09-03T02:42:22.317Z,96353.34
2022-09-03T02:44:53.624Z,96358.63
2022-09-03T02:47:21.846Z,96358.38
2022-09-03T02:49:49.670Z,96356.56
2022-09-03T02:52:18.655Z,96353.44
2022-09-03T02:54:46.234Z,96351.75
2022-09-03T02:57:16.248Z,96347.84
2022-09-03T02:59:47.613Z,96347.38
2022-09-03T03:02:15.397Z,96359.06
2022-09-03T03:04:43.096Z,96355.97
2022-09-03T03:07:10.707Z,96352.66
2022-09-03T03:09:39.757Z,96356.69
2022-09-03T03:12:08.791Z,96355.06
2022-09-03T03:14:37.511Z,96354.38
2022-09-03T03:17:06.030Z,96357.22
2022-09-03T03:19:33.707Z,96360.91
2022-09-03T03:22:01.245Z,96362.97
2022-09-03T03:24:28.740Z,96364.22
2022-09-03T03:26:59.198Z,96363.88
2022-09-03T03:29:27.416Z,96361.47
2022-09-03T03:31:55.000Z,96360.31
2022-09-03T03:34:22.806Z,96364.78
2022-09-03T03:36:50.583Z,96365.25
2022-09-03T03:39:18.290Z,96364.91
2022-09-03T03:41:45.921Z,96365.34
2022-09-03T03:44:15.510Z,96376.34
2022-09-03T03:46:43.163Z,96368.91
2022-09-03T03:49:11.121Z,96369.13
2022-09-03T03:51:40.695Z,96375.44
2022-09-03T03:54:08.303Z,96380.88
2022-09-03T03:56:36.494Z,96387.41
2022-09-03T03:59:05.623Z,96383.41
2022-09-03T04:01:34.611Z,96378.13
2022-09-03T04:04:02.239Z,96382.94
2022-09-03T04:06:30.028Z,96379.28
2022-09-03T04:08:57.609Z,96376.88
2022-09-03T04:11:26.002Z,96381.69
2022-09-03T04:13:54.504Z,96380.31
2022-09-03T04:16:23.798Z,96384.78
2022-09-03T04:18:54.142Z,96378.47
2022-09-03T04:21:23.934Z,96379.03
2022-09-03T04:23:52.857Z,96373.94
2022-09-03T04:26:22.128Z,96374.28
2022-09-03T04:28:50.131Z,96371.44
2022-09-03T04:31:19.965Z,96375.22
2022-09-03T04:33:47.901Z,96389.97
2022-09-03T04:36:18.829Z,96395.25
2022-09-03T04:38:48.026Z,96387.91
2022-09-03T04:41:17.780Z,96382.91
2022-09-03T04:43:46.108Z,96382.66
2022-09-03T04:46:20.210Z,96377.16
2022-09-03T04:48:49.896Z,96375.00
2022-09-03T04:51:21.061Z,96384.59
2022-09-03T04:53:50.039Z,96382.19
2022-09-03T04:56:19.597Z,96377.38
2022-09-03T04:58:50.997Z,96388.72
2022-09-03T05:01:20.618Z,96384.47
2022-09-03T05:03:48.667Z,96380.22
2022-09-03T05:06:17.194Z,96378.06
2022-09-03T05:08:48.933Z,96374.16
2022-09-03T05:11:18.808Z,96382.66
2022-09-03T05:13:49.598Z,96385.84
2022-09-03T05:16:18.993Z,96376.34
2022-09-03T05:18:47.777Z,96376.22
2022-09-03T05:21:16.973Z,96390.41
2022-09-03T05:23:47.702Z,96381.28
2022-09-03T05:26:17.429Z,96387.91
2022-09-03T05:28:46.212Z,96390.41
2022-09-03T05:31:15.715Z,96392.69
2022-09-03T05:33:45.426Z,96389.94
2022-09-03T05:36:14.592Z,96387.94
2022-09-03T05:38:42.110Z,96390.81
2022-09-03T05:41:13.000Z,96395.50
2022-09-03T05:43:41.187Z,96391.50
2022-09-03T05:46:10.286Z,96390.34
2022-09-03T05:48:39.643Z,96379.91
2022-09-03T05:51:09.339Z,96372.09
2022-09-03T05:53:38.812Z,96383.63
2022-09-03T05:56:10.858Z,96393.16
2022-09-03T05:58:43.544Z,96388.47
2022-09-03T06:01:13.132Z,96394.31
2022-09-03T06:03:40.971Z,96382.16
2022-09-03T06:06:09.087Z,96386.84
2022-09-03T06:08:38.626Z,96393.59
2022-09-03T06:11:07.007Z,96398.28
2022-09-03T06:13:35.745Z,96394.84
2022-09-03T06:16:07.143Z,96398.16
2022-09-03T06:18:34.835Z,96388.88
2022-09-03T06:21:04.151Z,96401.00
2022-09-03T06:23:33.323Z,96393.34
2022-09-03T06:26:05.277Z,96393.78
2022-09-03T06:28:34.365Z,96392.19
2022-09-03T06:31:03.029Z,96394.94
2022-09-03T06:33:33.407Z,96396.47
2022-09-03T06:36:04.614Z,96406.66
2022-09-03T06:38:37.227Z,96415.94
2022-09-03T06:41:07.692Z,96408.50
2022-09-03T06:43:37.061Z,96408.50
2022-09-03T06:46:06.746Z,96405.97
2022-09-03T06:48:37.254Z,96414.03
2022-09-03T06:51:07.206Z,96412.78
2022-09-03T06:53:37.014Z,96419.88
2022-09-03T06:56:07.638Z,96415.63
2022-09-03T06:58:38.031Z,96416.22
2022-09-03T07:01:07.807Z,96423.31
2022-09-03T07:03:37.717Z,96423.09
2022-09-03T07:06:07.186Z,96422.28
2022-09-03T07:08:35.581Z,96428.94
2022-09-03T07:11:06.124Z,96432.72
2022-09-03T07:13:34.501Z,96430.06
2022-09-03T07:16:03.211Z,96422.06
2022-09-03T07:18:31.047Z,96421.69
2022-09-03T07:21:01.587Z,96418.50
2022-09-03T07:23:30.296Z,96409.44
2022-09-03T07:25:59.169Z,96416.75
2022-09-03T07:28:28.281Z,96413.75
2022-09-03T07:31:01.532Z,96417.44
2022-09-03T07:33:33.663Z,96408.97
2022-09-03T07:36:08.335Z,96406.91
2022-09-03T07:38:37.018Z,96406.31
2022-09-03T07:41:06.736Z,96412.38
2022-09-03T07:43:36.485Z,96408.28
2022-09-03T07:46:04.429Z,96408.19
2022-09-03T07:48:36.709Z,96397.56
2022-09-03T07:51:06.537Z,96405.06
2022-09-03T07:53:34.981Z,96405.88
2022-09-03T07:56:03.663Z,96404.88
2022-09-03T07:58:31.822Z,96406.19
2022-09-03T08:01:00.362Z,96418.34
2022-09-03T08:03:28.602Z,96416.47
2022-09-03T08:06:01.680Z,96416.81
2022-09-03T08:08:35.515Z,96408.22
2022-09-03T08:11:11.136Z,96396.47
2022-09-03T08:13:40.838Z,96404.47
2022-09-03T08:16:09.614Z,96404.38
2022-09-03T08:18:39.091Z,96401.94
2022-09-03T08:21:08.492Z,96407.34
2022-09-03T08:23:39.653Z,96408.22
2022-09-03T08:26:07.774Z,96409.84
2022-09-03T08:28:36.196Z,96411.38
2022-09-03T08:31:08.408Z,96411.00
2022-09-03T08:33:39.096Z,96405.91
2022-09-03T08:36:08.660Z,96408.47
2022-09-03T08:38:38.261Z,96413.88
2022-09-03T08:41:11.518Z,96424.78
2022-09-03T08:43:56.974Z,96417.56
2022-09-03T08:46:33.137Z,96422.03
2022-09-03T08:49:01.566Z,96424.63
2022-09-03T08:51:29.113Z,96419.84
2022-09-03T08:53:58.865Z,96425.47
2022-09-03T08:56:31.785Z,96419.38
2022-09-03T08:59:01.817Z,96425.25
2022-09-03T09:01:42.783Z,96421.66
2022-09-03T09:04:25.367Z,96425.19
2022-09-03T09:06:57.181Z,96422.38
2022-09-03T09:09:31.922Z,96424.03
2022-09-03T09:12:11.956Z,96432.28
2022-09-03T09:14:53.194Z,96425.16
2022-09-03T09:17:32.753Z,96427.81
2022-09-03T09:20:07.884Z,96429.69
2022-09-03T09:22:39.549Z,96429.44
2022-09-03T09:25:14.325Z,96421.56
2022-09-03T09:27:51.807Z,96427.41
2022-09-03T09:30:20.541Z,96431.72
2022-09-03T09:32:48.312Z,96421.09
2022-09-03T09:35:18.045Z,96426.94
2022-09-03T09:37:50.962Z,96422.97
2022-09-03T09:40:35.668Z,96421.88
2022-09-03T09:43:14.089Z,96417.63
2022-09-03T09:45:43.894Z,96418.94
2022-09-03T09:48:19.987Z,96413.88
2022-09-03T09:50:47.687Z,96419.97
2022-09-03T09:53:18.561Z,96420.47
2022-09-03T09:55:51.537Z,96425.53
2022-09-03T09:58:23.598Z,96427.13
2022-09-03T10:01:00.148Z,96425.25
2022-09-03T10:03:29.948Z,96422.59
2022-09-03T10:06:26.715Z,96431.09
2022-09-03T10:09:06.309Z,96426.88
2022-09-03T10:11:38.627Z,96423.22
2022-09-03T10:14:14.972Z,96426.44
2022-09-03T10:16:48.964Z,96428.56
2022-09-03T10:19:21.940Z,96424.31
2022-09-03T10:21:58.422Z,96428.91
2022-09-03T10:24:48.712Z,96430.19
2022-09-03T10:27:18.697Z,96430.38
2022-09-03T10:29:47.746Z,96422.47
2022-09-03T10:32:29.102Z,96428.78
2022-09-03T10:35:20.541Z,96429.03
2022-09-03T10:37:56.537Z,96423.94
2022-09-03T10:40:33.259Z,96430.63
2022-09-03T10:43:17.086Z,96424.69
2022-09-03T10:45:57.045Z,96416.97
2022-09-03T10:48:51.732Z,96416.44
2022-09-03T10:51:25.605Z,96417.41
2022-09-03T10:54:11.828Z,96411.41
2022-09-03T10:56:47.418Z,96412.38
2022-09-03T10:59:33.926Z,96407.97
2022-09-03T11:02:23.110Z,96405.69
2022-09-03T11:04:57.820Z,96405.84
2022-09-03T11:07:31.349Z,96395.63
2022-09-03T11:10:09.040Z,96400.09
2022-09-03T11:12:43.896Z,96400.31
2022-09-03T11:15:17.327Z,96401.56
2022-09-03T11:17:51.852Z,96395.25
2022-09-03T11:20:25.246Z,96394.91
2022-09-03T11:22:56.498Z,96389.53
2022-09-03T11:25:31.927Z,96398.47
2022-09-03T11:28:12.593Z,96388.47
2022-09-03T11:30:54.815Z,96387.88
2022-09-03T11:33:25.792Z,96392.19
2022-09-03T11:36:01.053Z,96379.44
2022-09-03T11:38:32.310Z,96382.56
2022-09-03T11:41:13.533Z,96374.44
2022-09-03T11:43:42.661Z,96367.28
2022-09-03T11:46:14.292Z,96361.69
2022-09-03T11:48:46.186Z,96356.31
2022-09-03T11:51:30.887Z,96350.09
2022-09-03T11:54:00.832Z,96349.31
2022-09-03T11:56:57.846Z,96345.81
2022-09-03T11:59:27.519Z,96353.53
2022-09-03T12:02:01.875Z,96355.16
2022-09-03T12:04:40.301Z,96362.66
2022-09-03T12:07:26.443Z,96361.28
2022-09-03T12:10:13.482Z,96363.19
2022-09-03T12:13:16.827Z,96372.84
2022-09-03T12:16:08.623Z,96377.19
2022-09-03T12:18:38.759Z,96372.75
2022-09-03T12:21:10.923Z,96376.94
2022-09-03T12:23:44.731Z,96372.50
2022-09-03T12:26:16.779Z,96387.25
2022-09-03T12:28:46.543Z,96389.19
2022-09-03T12:31:25.635Z,96391.16
2022-09-03T12:33:56.058Z,96391.25
2022-09-03T12:36:27.413Z,96392.97
2022-09-03T12:39:12.675Z,96389.31
2022-09-03T12:41:57.271Z,96389.13
2022-09-03T12:44:30.217Z,96402.00
2022-09-03T12:50:07.360Z,96398.09
2022-09-03T12:52:40.090Z,96400.88
2022-09-03T12:55:27.492Z,96401.47
2022-09-03T12:58:04.142Z,96391.38
2022-09-03T13:00:34.994Z,96388.78
2022-09-03T13:03:08.431Z,96404.56
2022-09-03T13:05:43.164Z,96400.06
2022-09-03T13:08:20.033Z,96420.63
2022-09-03T13:10:53.434Z,96444.13
2022-09-03T13:13:25.189Z,96501.50
2022-09-03T13:16:27.974Z,96487.72
2022-09-03T13:19:02.395Z,96487.72
2022-09-03T13:21:38.532Z,96487.63
2022-09-03T13:24:35.402Z,96472.59
2022-09-03T13:27:33.672Z,96466.41
2022-09-03T13:30:12.234Z,96469.41
2022-09-03T13:32:57.463Z,96477.16
2022-09-03T13:35:32.510Z,96487.06
2022-09-03T13:38:10.201Z,96487.19
2022-09-03T13:40:47.947Z,96496.53
2022-09-03T13:43:26.068Z,96494.28
2022-09-03T13:45:58.652Z,96495.00
2022-09-03T13:48:50.420Z,96489.13
2022-09-03T13:51:23.619Z,96477.28
2022-09-03T13:54:04.535Z,96481.84
2022-09-03T13:56:45.591Z,96473.72
2022-09-03T13:59:20.980Z,96467.25
2022-09-03T14:02:08.354Z,96468.44
2022-09-03T14:04:50.222Z,96468.56
2022-09-03T14:07:24.391Z,96462.84
2022-09-03T14:10:02.860Z,96462.53
2022-09-03T14:12:44.251Z,96465.66
2022-09-03T14:15:19.664Z,96467.75
2022-09-03T14:17:53.819Z,96467.97
2022-09-03T14:20:24.691Z,96472.47
2022-09-03T14:22:57.437Z,96462.06
2022-09-03T14:25:27.081Z,96455.97
2022-09-03T14:27:57.209Z,96453.09
2022-09-03T14:30:40.537Z,96457.84
2022-09-03T14:33:20.463Z,96454.84
2022-09-03T14:36:03.769Z,96460.38
2022-09-03T14:39:13.744Z,96449.72
2022-09-03T14:42:16.335Z,96449.25
2022-09-03T14:45:03.096Z,96448.53
2022-09-03T14:47:44.507Z,96448.69
2022-09-03T14:50:29.250Z,96453.06
2022-09-03T14:53:14.913Z,96450.84
2022-09-03T14:56:11.813Z,96454.50
2022-09-03T14:59:00.793Z,96451.78
2022-09-03T15:01:38.847Z,96450.16
2022-09-03T15:04:47.857Z,96457.38
2022-09-03T15:07:33.228Z,96462.44
2022-09-03T15:10:08.444Z,96469.66
2022-09-03T15:12:40.147Z,96467.34
2022-09-03T15:15:14.165Z,96473.28
2022-09-03T15:17:52.095Z,96471.75
2022-09-03T15:20:31.275Z,96466.81
2022-09-03T15:23:21.725Z,96457.59
2022-09-03T15:26:11.036Z,96442.28
2022-09-03T15:28:49.516Z,96448.13
2022-09-03T15:31:24.779Z,96445.22
2022-09-03T15:34:02.136Z,96449.25
2022-09-03T15:36:37.196Z,96443.16
2022-09-03T15:39:09.673Z,96448.22
2022-09-03T15:41:45.543Z,96453.56
2022-09-03T15:44:19.500Z,96459.50
2022-09-03T15:46:56.702Z,96453.00
2022-09-03T15:49:52.556Z,96453.09
2022-09-03T15:52:31.647Z,96454.47
2022-09-03T15:55:07.526Z,96444.44
2022-09-03T15:57:43.838Z,96448.66
2022-09-03T16:00:14.738Z,96443.16
2022-09-03T16:02:55.570Z,96443.31
2022-09-03T16:05:39.313Z,96445.06
2022-09-03T16:08:13.665Z,96440.50
2022-09-03T16:10:51.021Z,96448.09
2022-09-03T16:13:31.913Z,96455.75
2022-09-03T16:16:03.312Z,96451.47
2022-09-03T16:18:35.696Z,96452.88
2022-09-03T16:21:08.144Z,96447.31
2022-09-03T16:23:42.163Z,96456.03
2022-09-03T16:26:14.797Z,96457.91
2022-09-03T16:28:47.320Z,96459.97
2022-09-03T16:31:24.132Z,96461.25
2022-09-03T16:34:03.308Z,96460.25
2022-09-03T16:36:44.520Z,96460.25
2022-09-03T16:39:25.637Z,96456.78
2022-09-03T16:42:01.732Z,96457.81
2022-09-03T16:44:45.341Z,96465.75
2022-09-03T16:47:23.050Z,96454.63
2022-09-03T16:50:05.441Z,96464.63
2022-09-03T16:52:42.916Z,96465.91
2022-09-03T16:55:22.169Z,96476.97
2022-09-03T16:58:01.657Z,96485.16
2022-09-03T17:00:50.243Z,96476.09
2022-09-03T17:03:42.444Z,96475.53
2022-09-03T17:06:32.262Z,96468.31
2022-09-03T17:09:16.657Z,96473.28
2022-09-03T17:11:59.141Z,96475.34
2022-09-03T17:14:48.530Z,96474.78
2022-09-03T17:17:30.184Z,96464.47
2022-09-03T17:20:06.520Z,96469.41
2022-09-03T17:22:46.084Z,96466.44
2022-09-03T17:25:27.556Z,96475.09
2022-09-03T17:28:05.222Z,96482.69
2022-09-03T17:30:43.409Z,96480.75
2022-09-03T17:33:35.907Z,96479.84
2022-09-03T17:36:09.911Z,96496.41
2022-09-03T17:49:30.483Z,96498.06
2022-09-03T17:52:04.667Z,96499.59
2022-09-03T17:54:42.104Z,96504.75
2022-09-03T17:57:19.590Z,96510.72
2022-09-03T17:59:55.239Z,96514.56
2022-09-03T18:02:32.977Z,96522.13
2022-09-03T18:05:07.812Z,96524.41
2022-09-03T18:07:48.400Z,96524.31
2022-09-03T18:10:28.440Z,96527.66
2022-09-03T18:13:06.066Z,96529.38
2022-09-03T18:15:38.850Z,96537.75
2022-09-03T18:18:11.854Z,96542.69
2022-09-03T18:21:22.373Z,96545.56
2022-09-03T18:24:15.690Z,96545.44
2022-09-03T18:27:07.862Z,96551.63
2022-09-03T18:30:04.382Z,96550.91
2022-09-03T18:32:49.315Z,96561.47
2022-09-03T18:35:34.816Z,96560.78
2022-09-03T18:38:23.483Z,96574.28
2022-09-03T18:41:13.488Z,96575.19
2022-09-03T18:44:07.977Z,96579.31
2022-09-03T18:50:19.879Z,96583.19
2022-09-03T18:53:13.252Z,96586.53
2022-09-03T18:56:12.433Z,96584.34
2022-09-03T18:59:09.963Z,96589.03
2022-09-03T19:01:57.754Z,96605.88
2022-09-03T19:04:55.453Z,96599.00
2022-09-03T19:07:48.475Z,96592.94
2022-09-03T19:10:38.525Z,96592.09
2022-09-03T19:13:43.662Z,96595.19
2022-09-03T19:16:32.620Z,96583.84
2022-09-03T19:19:39.631Z,96587.75
2022-09-03T19:22:27.622Z,96587.75
2022-09-03T19:25:20.565Z,96585.13
2022-09-03T19:28:21.529Z,96585.34
2022-09-03T19:31:19.821Z,96595.09
2022-09-03T19:34:12.464Z,96596.56
2022-09-03T19:37:02.773Z,96596.97
2022-09-03T19:40:02.831Z,96607.19
2022-09-03T19:43:02.053Z,96606.59
2022-09-03T19:45:59.955Z,96611.50
2022-09-03T19:48:59.942Z,96611.13
2022-09-03T19:51:51.012Z,96611.38
2022-09-03T19:54:41.535Z,96608.16
2022-09-03T19:57:30.062Z,96607.56
2022-09-03T20:00:16.892Z,96612.84
2022-09-03T20:03:07.471Z,96612.25
2022-09-03T20:05:56.162Z,96609.03
2022-09-03T20:08:43.571Z,96613.94
2022-09-03T20:11:17.805Z,96627.56
2022-09-03T20:14:03.122Z,96620.47
2022-09-03T20:16:35.927Z,96615.78
2022-09-03T20:19:13.002Z,96618.19
2022-09-03T20:21:49.371Z,96620.03
2022-09-03T20:24:28.458Z,96618.88
2022-09-03T20:27:05.028Z,96610.59
2022-09-03T20:29:49.218Z,96624.22
2022-09-03T20:32:30.096Z,96623.84
2022-09-03T20:35:06.906Z,96621.22
2022-09-03T20:37:42.576Z,96621.63
2022-09-03T20:40:19.331Z,96631.34
2022-09-03T20:43:07.550Z,96624.69
2022-09-03T20:45:53.713Z,96629.81
2022-09-03T20:48:25.270Z,96637.13
2022-09-03T20:51:01.599Z,96641.59
2022-09-03T20:54:02.181Z,96639.19
2022-09-03T20:56:38.735Z,96637.78
2022-09-03T20:59:16.787Z,96644.88
2022-09-03T21:01:56.295Z,96646.88
2022-09-03T21:04:40.375Z,96644.59
2022-09-03T21:07:18.559Z,96646.78
2022-09-03T21:09:57.003Z,96649.19
2022-09-03T21:12:33.979Z,96648.56
2022-09-03T21:15:11.745Z,96649.97
2022-09-03T21:17:51.560Z,96648.13
2022-09-03T21:20:29.774Z,96640.44
2022-09-03T21:23:13.293Z,96647.72
2022-09-03T21:25:43.940Z,96651.19
2022-09-03T21:28:17.615Z,96658.25
2022-09-03T21:30:52.384Z,96654.84
2022-09-03T21:33:24.538Z,96652.66
2022-09-03T21:35:55.446Z,96656.53
2022-09-03T21:38:26.584Z,96651.47
2022-09-03T21:40:59.960Z,96656.16
2022-09-03T21:43:34.556Z,96657.75
2022-09-03T21:46:07.505Z,96659.78
2022-09-03T21:48:39.120Z,96663.47
2022-09-03T21:51:14.522Z,96659.22
2022-09-03T21:53:47.320Z,96662.88
2022-09-03T21:56:45.291Z,96668.16
2022-09-03T21:59:28.466Z,96664.91
2022-09-03T22:02:04.780Z,96665.97
2022-09-03T22:04:32.795Z,96667.75
2022-09-03T22:07:11.043Z,96678.09
2022-09-03T22:09:46.472Z,96674.66
2022-09-03T22:12:21.343Z,96674.44
2022-09-03T22:14:55.621Z,96675.25
2022-09-03T22:17:30.545Z,96670.78
2022-09-03T22:19:58.300Z,96669.19
2022-09-03T22:22:35.204Z,96666.75
2022-09-03T22:25:07.005Z,96674.06
2022-09-03T22:27:44.642Z,96669.00
2022-09-03T22:30:20.051Z,96673.28
2022-09-03T22:33:01.225Z,96676.13
2022-09-03T22:35:49.626Z,96669.66
2022-09-03T22:38:49.053Z,96680.41
2022-09-03T22:41:30.877Z,96681.59
2022-09-03T22:44:05.981Z,96676.69
2022-09-03T22:46:47.249Z,96676.84
2022-09-03T22:49:32.770Z,96681.69
2022-09-03T22:52:13.248Z,96673.56
2022-09-03T22:54:54.417Z,96677.22
2022-09-03T22:57:25.335Z,96668.72
2022-09-03T23:00:00.657Z,96679.28
2022-09-03T23:02:32.298Z,96670.34
2022-09-03T23:05:06.194Z,96676.19
2022-09-03T23:07:46.104Z,96675.97
2022-09-03T23:10:22.605Z,96677.38
2022-09-03T23:13:05.351Z,96677.16
2022-09-03T23:15:35.201Z,96677.94
2022-09-03T23:18:09.064Z,96683.22
2022-09-03T23:20:40.124Z,96689.53
2022-09-03T23:23:16.222Z,96681.84
2022-09-03T23:25:48.754Z,96688.13
2022-09-03T23:28:24.189Z,96696.59
2022-09-03T23:30:51.848Z,96684.25
2022-09-03T23:33:20.665Z,96681.63
2022-09-03T23:35:54.719Z,96680.44
2022-09-03T23:38:31.185Z,96674.81
2022-09-03T23:41:03.254Z,96683.75
2022-09-03T23:43:56.824Z,96678.69
2022-09-03T23:46:29.097Z,96687.38
2022-09-03T23:49:23.647Z,96687.75
2022-09-03T23:52:08.789Z,96685.13
2022-09-03T23:54:39.896Z,96685.72
2022-09-03T23:57:24.526Z,96690.31
